Time;durP1;ratioP1;P1;durP2;ratioP2;P2;SDS_P1;SDS_P2;PMS_P1;PMS_P2;Temp;Humidity;BMP_temperature;BMP_pressure;BME280_temperature;BME280_humidity;BME280_pressure;Samples;Min_cycle;Max_cycle;Signal;HPM_P1;HPM_P2
2023/01/03 00:04:34;;;;;;;2.38;1.17;;;4.90;99.90;;;;;;20517469;28;20287;-40
2023/01/03 00:14:37;;;;;;;3.58;1.60;;;4.80;99.90;;;;;;20521303;28;20063;-40
2023/01/03 00:24:38;;;;;;;5.03;2.13;;;4.60;99.90;;;;;;20525112;28;20042;-40
2023/01/03 00:34:42;;;;;;;8.18;3.50;;;4.50;99.90;;;;;;20502842;28;20078;-40
2023/01/03 00:44:43;;;;;;;5.45;2.70;;;4.40;99.90;;;;;;20511632;28;20498;-40
2023/01/03 00:54:45;;;;;;;5.03;2.88;;;4.50;99.90;;;;;;20519568;28;20471;-40
2023/01/03 01:04:45;;;;;;;17.15;2.53;;;4.50;99.90;;;;;;20506322;28;20063;-40
2023/01/03 01:14:46;;;;;;;5.72;2.58;;;4.50;99.90;;;;;;20510504;28;20047;-40
2023/01/03 01:24:47;;;;;;;4.75;2.55;;;4.50;99.90;;;;;;20510935;28;20043;-40
2023/01/03 01:34:48;;;;;;;9.18;3.00;;;4.40;99.90;;;;;;20509716;28;20121;-40
2023/01/03 01:44:58;;;;;;;6.38;2.50;;;4.30;99.90;;;;;;20507944;28;20043;-40
2023/01/03 01:55:01;;;;;;;8.25;3.75;;;4.30;99.90;;;;;;20500004;28;20071;-40
2023/01/03 02:05:07;;;;;;;5.75;2.55;;;4.40;99.90;;;;;;20502650;28;21052;-40
2023/01/03 02:15:21;;;;;;;5.68;3.20;;;4.50;99.90;;;;;;20511732;28;20509;-40
2023/01/03 02:25:50;;;;;;;10.43;3.58;;;4.40;99.90;;;;;;20514281;28;21069;-40
2023/01/03 02:36:10;;;;;;;4.35;2.90;;;4.30;99.90;;;;;;20512293;28;20681;-40
2023/01/03 02:46:22;;;;;;;6.25;3.95;;;4.20;99.90;;;;;;20509553;28;20101;-40
2023/01/03 02:56:27;;;;;;;16.20;5.28;;;4.30;99.90;;;;;;20531210;28;21831;-40
2023/01/03 03:06:42;;;;;;;21.30;8.93;;;4.30;99.90;;;;;;20535727;28;20047;-40
2023/01/03 03:16:48;;;;;;;51.08;6.68;;;4.60;99.90;;;;;;20522561;28;20502;-43
2023/01/03 03:26:51;;;;;;;12.10;5.28;;;4.80;99.90;;;;;;20511261;28;20047;-40
2023/01/03 03:37:03;;;;;;;31.75;10.50;;;4.90;99.90;;;;;;20519179;28;20038;-40
2023/01/03 03:47:12;;;;;;;29.70;12.57;;;4.80;99.90;;;;;;20520389;28;20047;-43
2023/01/03 03:57:54;;;;;;;34.03;14.85;;;4.60;99.90;;;;;;20518853;28;20911;-42
2023/01/03 04:07:55;;;;;;;21.65;10.32;;;4.60;99.90;;;;;;20469322;28;20267;-43
2023/01/03 04:17:56;;;;;;;12.57;7.88;;;4.50;99.90;;;;;;20512260;28;20043;-42
2023/01/03 04:27:57;;;;;;;19.80;11.10;;;4.40;99.90;;;;;;20516991;28;20082;-43
2023/01/03 04:37:58;;;;;;;24.77;13.68;;;4.30;99.90;;;;;;20513246;28;20030;-42
2023/01/03 04:47:59;;;;;;;19.13;11.63;;;4.20;99.90;;;;;;20487329;28;20522;-42
2023/01/03 04:58:00;;;;;;;16.95;10.15;;;4.30;99.90;;;;;;20523477;28;20035;-42
2023/01/03 05:08:06;;;;;;;19.48;10.40;;;4.20;99.90;;;;;;20510348;28;20050;-42
2023/01/03 05:18:07;;;;;;;22.88;12.38;;;4.20;99.90;;;;;;20515035;28;20118;-42
2023/01/03 05:28:08;;;;;;;18.83;12.00;;;4.10;99.90;;;;;;20504546;28;20035;-43
2023/01/03 05:38:09;;;;;;;25.73;11.48;;;4.00;99.90;;;;;;20511649;28;20459;-42
2023/01/03 05:48:10;;;;;;;20.88;11.43;;;4.00;99.90;;;;;;20512835;28;20912;-42
2023/01/03 05:58:11;;;;;;;17.88;10.98;;;4.00;99.90;;;;;;20484642;28;20035;-42
2023/01/03 06:08:12;;;;;;;19.48;10.63;;;4.00;99.90;;;;;;20509516;28;20039;-42
2023/01/03 06:18:13;;;;;;;17.23;9.98;;;4.10;99.90;;;;;;20504838;28;20086;-43
2023/01/03 06:28:14;;;;;;;14.02;8.02;;;4.10;99.90;;;;;;20504602;28;20043;-42
2023/01/03 06:38:15;;;;;;;21.77;9.95;;;4.30;99.90;;;;;;20512743;28;20031;-42
2023/01/03 06:58:36;;;;;;;13.05;6.80;;;4.60;99.90;;;;;;20504503;28;20903;-40
2023/01/03 07:08:37;;;;;;;14.70;9.68;;;4.70;99.90;;;;;;20504159;28;20934;-40
2023/01/03 07:18:38;;;;;;;15.73;6.18;;;4.90;99.90;;;;;;20500775;28;20043;-40
2023/01/03 07:28:39;;;;;;;15.07;6.18;;;4.90;99.90;;;;;;20506172;28;20050;-40
2023/01/03 07:38:42;;;;;;;9.93;5.35;;;5.10;99.90;;;;;;20513662;28;20348;-40
2023/01/03 07:48:49;;;;;;;9.20;5.97;;;5.00;99.90;;;;;;20515882;28;20703;-39
2023/01/03 07:58:50;;;;;;;9.73;5.68;;;5.10;99.90;;;;;;20516565;28;20118;-42
2023/01/03 08:19:11;;;;;;;10.65;5.35;;;5.30;99.90;;;;;;20512682;28;20969;-41
2023/01/03 08:29:12;;;;;;;15.00;7.63;;;5.40;99.90;;;;;;20515400;28;20474;-41
2023/01/03 08:39:22;;;;;;;22.90;7.90;;;5.50;99.90;;;;;;20500036;28;20441;-39
2023/01/03 08:49:24;;;;;;;16.00;6.25;;;5.50;99.90;;;;;;20515613;28;21908;-39
2023/01/03 08:59:25;;;;;;;10.30;5.28;;;5.70;99.90;;;;;;20495478;28;20122;-39
2023/01/03 09:09:26;;;;;;;10.45;5.70;;;5.70;99.90;;;;;;20450614;28;20047;-39
2023/01/03 09:19:27;;;;;;;19.50;9.77;;;5.90;99.90;;;;;;20488889;28;20178;-40
2023/01/03 09:29:28;;;;;;;13.15;7.28;;;6.00;99.90;;;;;;20465479;28;20134;-40
2023/01/03 09:39:29;;;;;;;14.48;7.88;;;6.00;99.90;;;;;;20478498;28;20041;-40
2023/01/03 09:49:30;;;;;;;13.75;7.13;;;6.20;99.90;;;;;;20486847;28;20050;-39
2023/01/03 10:10:21;;;;;;;17.20;9.77;;;6.40;99.90;;;;;;20464897;28;20423;-40
2023/01/03 10:20:53;;;;;;;21.58;10.32;;;6.50;99.90;;;;;;20469805;28;21000;-40
2023/01/03 10:31:25;;;;;;;18.55;9.45;;;6.70;99.90;;;;;;20464713;28;20975;-40
2023/01/03 10:41:42;;;;;;;19.48;11.25;;;6.80;99.90;;;;;;20475013;28;20113;-40
2023/01/03 10:51:46;;;;;;;17.93;9.50;;;7.00;99.90;;;;;;20454721;28;21881;-40
2023/01/03 11:02:15;;;;;;;15.25;9.00;;;7.10;99.90;;;;;;20483931;28;20541;-40
2023/01/03 11:12:36;;;;;;;18.33;10.70;;;7.30;99.90;;;;;;20545617;28;21603;-40
2023/01/03 11:22:44;;;;;;;19.95;9.73;;;7.30;99.90;;;;;;20539593;28;20232;-40
2023/01/03 11:32:55;;;;;;;16.58;9.48;;;7.50;99.90;;;;;;20538769;28;20058;-40
2023/01/03 11:43:45;;;;;;;14.30;7.10;;;7.60;99.90;;;;;;20541730;28;20769;-40
2023/01/03 11:53:55;;;;;;;15.82;7.93;;;7.60;99.90;;;;;;20504830;28;20892;-40
2023/01/03 12:03:56;;;;;;;20.00;8.98;;;7.70;99.90;;;;;;20506364;28;20839;-40
2023/01/03 12:14:18;;;;;;;11.50;7.57;;;7.80;99.90;;;;;;20491160;28;20652;-40
2023/01/03 12:24:30;;;;;;;12.80;7.85;;;7.90;99.90;;;;;;20493983;28;20165;-40
2023/01/03 12:34:41;;;;;;;13.80;7.30;;;8.00;99.90;;;;;;20485340;28;20189;-40
2023/01/03 12:44:50;;;;;;;10.98;6.55;;;8.10;99.90;;;;;;20494956;28;20298;-40
2023/01/03 12:55:01;;;;;;;14.05;6.20;;;8.20;99.90;;;;;;20486871;28;20845;-40
2023/01/03 13:05:20;;;;;;;7.00;4.00;;;8.20;99.90;;;;;;20478079;28;20050;-41
2023/01/03 13:15:33;;;;;;;7.47;4.22;;;8.30;99.90;;;;;;20477716;28;20066;-41
2023/01/03 13:25:39;;;;;;;7.43;4.00;;;8.40;99.90;;;;;;20466224;28;20052;-40
2023/01/03 13:35:43;;;;;;;4.88;2.67;;;8.60;99.90;;;;;;20474736;28;20121;-40
2023/01/03 13:45:44;;;;;;;7.43;3.60;;;8.60;99.90;;;;;;20440758;28;20047;-40
2023/01/03 13:55:56;;;;;;;5.43;2.85;;;8.70;99.90;;;;;;20470560;28;20113;-40
2023/01/03 14:06:46;;;;;;;4.28;2.78;;;8.70;99.90;;;;;;20480529;28;21813;-40
2023/01/03 14:16:50;;;;;;;4.18;1.90;;;8.50;99.90;;;;;;20431019;28;20945;-41
2023/01/03 14:26:53;;;;;;;5.88;2.60;;;8.50;99.90;;;;;;20503297;28;21146;-40
2023/01/03 14:37:00;;;;;;;5.78;3.05;;;8.50;99.90;;;;;;20475089;28;20228;-41
2023/01/03 14:47:11;;;;;;;3.53;2.10;;;8.50;99.90;;;;;;20526806;28;20166;-41
2023/01/03 14:57:22;;;;;;;3.75;2.22;;;8.40;99.90;;;;;;20450632;28;20458;-41
2023/01/03 15:07:38;;;;;;;4.40;2.65;;;8.40;99.90;;;;;;20504530;28;20082;-41
2023/01/03 15:17:39;;;;;;;4.93;2.80;;;8.40;99.90;;;;;;20495576;28;21752;-41
2023/01/03 15:27:43;;;;;;;7.13;2.15;;;8.30;99.90;;;;;;20516044;28;20077;-41
2023/01/03 15:37:44;;;;;;;7.53;2.65;;;8.40;99.90;;;;;;20498292;28;20042;-41
2023/01/03 15:47:47;;;;;;;5.05;1.90;;;8.30;99.90;;;;;;20498157;28;20133;-41
2023/01/03 15:57:51;;;;;;;5.28;2.15;;;8.30;99.90;;;;;;20496575;28;20067;-41
2023/01/03 16:07:52;;;;;;;3.20;1.52;;;8.20;99.90;;;;;;20488466;28;20631;-41
2023/01/03 16:17:53;;;;;;;3.00;1.20;;;8.30;99.90;;;;;;20474082;28;20149;-41
2023/01/03 16:27:54;;;;;;;3.47;1.50;;;8.20;99.90;;;;;;20490483;28;20075;-41
2023/01/03 16:37:55;;;;;;;3.83;1.88;;;8.20;99.90;;;;;;20484278;28;20069;-41
2023/01/03 16:47:57;;;;;;;5.75;2.25;;;8.20;99.90;;;;;;20468703;28;20069;-41
2023/01/03 16:57:59;;;;;;;8.82;2.65;;;8.20;99.90;;;;;;20512155;28;20443;-41
2023/01/03 17:08:15;;;;;;;2.20;1.40;;;8.10;99.90;;;;;;20543143;28;20485;-41
2023/01/03 17:18:19;;;;;;;5.22;2.47;;;8.20;99.90;;;;;;20525864;28;20043;-40
2023/01/03 17:28:21;;;;;;;5.57;2.53;;;8.20;99.90;;;;;;20488047;28;20079;-41
2023/01/03 17:38:22;;;;;;;3.72;1.55;;;8.30;99.90;;;;;;20492409;28;20062;-41
2023/01/03 17:58:46;;;;;;;3.03;1.13;;;8.30;99.90;;;;;;20488045;28;21818;-41
2023/01/03 18:08:47;;;;;;;4.25;2.03;;;8.30;99.90;;;;;;20480050;28;20134;-42
2023/01/03 18:18:49;;;;;;;11.60;2.35;;;8.30;99.90;;;;;;20470538;28;22360;-41
2023/01/03 18:28:50;;;;;;;4.65;1.58;;;8.40;99.90;;;;;;20462083;28;20051;-41
2023/01/03 18:38:59;;;;;;;5.72;2.08;;;8.40;99.90;;;;;;20475479;28;21352;-41
2023/01/03 18:49:02;;;;;;;7.10;2.88;;;8.40;99.90;;;;;;20461777;28;20086;-41
2023/01/03 18:59:08;;;;;;;7.68;3.17;;;8.40;99.90;;;;;;20467432;28;20129;-41
2023/01/03 19:09:15;;;;;;;4.15;1.75;;;8.40;99.90;;;;;;20483291;28;20205;-41
2023/01/03 19:19:16;;;;;;;6.90;1.93;;;8.50;99.90;;;;;;20460249;28;20552;-41
2023/01/03 19:29:30;;;;;;;2.85;1.60;;;8.50;99.90;;;;;;20478547;28;20165;-41
2023/01/03 19:39:31;;;;;;;3.22;1.73;;;8.50;99.90;;;;;;20495601;28;20215;-41
2023/01/03 19:49:32;;;;;;;2.35;1.05;;;8.50;99.90;;;;;;20469771;28;20074;-41
2023/01/03 19:59:36;;;;;;;2.08;1.13;;;8.50;99.90;;;;;;20484050;28;20078;-41
2023/01/03 20:09:37;;;;;;;23.23;2.42;;;8.50;99.90;;;;;;20484313;28;20909;-41
2023/01/03 20:19:39;;;;;;;3.53;1.45;;;8.60;99.90;;;;;;20481070;28;20502;-41
2023/01/03 20:29:40;;;;;;;5.88;1.58;;;8.60;99.90;;;;;;20479432;28;20141;-41
2023/01/03 20:39:43;;;;;;;3.00;1.20;;;8.60;99.90;;;;;;20481334;28;20165;-41
2023/01/03 20:49:44;;;;;;;4.78;1.25;;;8.70;99.90;;;;;;20478150;28;20162;-41
2023/01/03 20:59:45;;;;;;;5.18;1.42;;;8.70;99.90;;;;;;20470451;28;20139;-41
2023/01/03 21:09:46;;;;;;;3.35;1.30;;;8.80;99.90;;;;;;20488908;28;20055;-42
2023/01/03 21:19:47;;;;;;;4.07;1.42;;;8.90;99.90;;;;;;20472690;28;20130;-41
2023/01/03 21:29:48;;;;;;;3.25;1.30;;;9.00;99.90;;;;;;20473835;28;20046;-41
2023/01/03 21:39:49;;;;;;;4.43;1.90;;;9.10;99.90;;;;;;20488978;28;20043;-41
2023/01/03 21:49:50;;;;;;;7.28;4.45;;;9.20;99.90;;;;;;20493800;28;20034;-41
2023/01/03 21:59:51;;;;;;;2.78;1.35;;;9.30;99.90;;;;;;20476647;28;20939;-41
2023/01/03 22:20:13;;;;;;;4.07;1.58;;;9.40;99.90;;;;;;20530305;28;20196;-41
2023/01/03 22:30:16;;;;;;;3.88;1.48;;;9.50;99.90;;;;;;20513940;28;20057;-41
2023/01/03 22:40:17;;;;;;;2.08;0.60;;;9.50;99.90;;;;;;20513782;28;20458;-42
2023/01/03 22:50:19;;;;;;;3.50;0.75;;;9.50;99.90;;;;;;20508221;28;20102;-41
2023/01/03 23:00:20;;;;;;;2.53;0.93;;;9.50;99.90;;;;;;20514143;28;20090;-41
2023/01/03 23:10:21;;;;;;;2.85;0.75;;;9.50;99.90;;;;;;20524582;28;20042;-41
2023/01/03 23:20:30;;;;;;;3.90;1.50;;;9.30;99.90;;;;;;20519105;28;20043;-40
2023/01/03 23:30:31;;;;;;;1.92;0.80;;;9.10;99.90;;;;;;20522460;28;20445;-40
2023/01/03 23:40:32;;;;;;;2.00;0.90;;;9.00;99.90;;;;;;20516792;28;20406;-40
2023/01/03 23:50:33;;;;;;;6.07;2.40;;;8.90;99.90;;;;;;20510354;28;20505;-40
